createdAt,value
2023-04-13T00:01:27.683Z,10.59
2023-04-13T00:06:29.460Z,10.59
2023-04-13T00:11:31.960Z,10.57
2023-04-13T00:16:33.555Z,10.56
2023-04-13T00:21:35.055Z,10.47
2023-04-13T00:26:36.405Z,10.44
2023-04-13T00:31:38.035Z,10.44
2023-04-13T00:36:39.493Z,10.41
2023-04-13T00:41:41.489Z,10.44
2023-04-13T00:46:46.465Z,10.40
2023-04-13T00:51:48.494Z,10.33
2023-04-13T00:56:51.229Z,10.30
2023-04-13T01:01:56.819Z,10.29
2023-04-13T01:07:16.338Z,10.21
2023-04-13T01:12:24.744Z,10.20
2023-04-13T01:17:30.992Z,10.15
2023-04-13T01:22:35.726Z,10.11
2023-04-13T01:27:47.129Z,10.15
2023-04-13T01:32:51.576Z,10.07
2023-04-13T01:37:53.552Z,9.91
2023-04-13T01:42:59.213Z,9.77
2023-04-13T01:48:19.728Z,9.65
2023-04-13T01:53:37.470Z,9.67
2023-04-13T01:58:40.684Z,9.76
2023-04-13T02:03:49.030Z,9.69
2023-04-13T02:08:52.524Z,9.59
2023-04-13T02:13:57.555Z,9.58
2023-04-13T02:19:00.040Z,9.49
2023-04-13T02:24:01.608Z,9.53
2023-04-13T02:29:03.147Z,9.57
2023-04-13T02:34:05.633Z,9.54
2023-04-13T02:39:07.960Z,9.60
2023-04-13T02:44:10.319Z,9.48
2023-04-13T02:49:21.532Z,9.37
2023-04-13T02:54:33.172Z,9.30
2023-04-13T02:59:34.672Z,9.39
2023-04-13T03:04:40.171Z,9.40
2023-04-13T03:09:42.918Z,9.30
2023-04-13T03:14:44.539Z,9.15
2023-04-13T03:19:47.452Z,9.32
2023-04-13T03:24:50.808Z,9.28
2023-04-13T03:29:59.284Z,9.16
2023-04-13T03:35:08.513Z,9.11
2023-04-13T03:40:11.375Z,8.98
2023-04-13T03:45:21.505Z,9.08
2023-04-13T03:50:24.356Z,8.99
2023-04-13T03:55:27.209Z,9.00
2023-04-13T04:00:31.794Z,8.97
2023-04-13T04:05:57.324Z,9.03
2023-04-13T04:11:01.532Z,8.93
2023-04-13T04:16:07.055Z,9.04
2023-04-13T04:21:13.179Z,9.04
2023-04-13T04:26:15.124Z,9.03
2023-04-13T04:31:25.108Z,9.00
2023-04-13T04:36:30.471Z,9.02
2023-04-13T04:41:37.459Z,8.94
2023-04-13T04:46:41.553Z,9.01
2023-04-13T04:51:47.638Z,8.94
2023-04-13T04:56:51.230Z,9.02
2023-04-13T05:01:54.601Z,8.93
2023-04-13T05:06:56.111Z,8.87
2023-04-13T05:11:59.737Z,8.83
2023-04-13T05:17:01.508Z,8.81
2023-04-13T05:22:07.686Z,8.82
2023-04-13T05:27:17.404Z,8.88
2023-04-13T05:32:19.142Z,8.76
2023-04-13T05:37:22.542Z,8.72
2023-04-13T05:42:25.232Z,8.79
2023-04-13T05:47:28.902Z,8.73
2023-04-13T05:52:35.149Z,8.73
2023-04-13T05:57:37.574Z,8.76
2023-04-13T06:02:43.996Z,8.71
2023-04-13T06:07:48.393Z,8.77
2023-04-13T06:12:50.520Z,8.69
2023-04-13T06:17:55.640Z,8.72
2023-04-13T06:22:57.989Z,8.69
2023-04-13T06:28:02.277Z,8.65
2023-04-13T06:33:06.157Z,8.64
2023-04-13T06:38:09.260Z,8.70
2023-04-13T06:43:29.759Z,8.69
2023-04-13T06:48:50.469Z,8.69
2023-04-13T06:53:58.265Z,8.74
2023-04-13T06:59:02.661Z,8.76
2023-04-13T07:04:07.745Z,8.87
2023-04-13T07:09:10.021Z,8.94
2023-04-13T07:14:11.784Z,9.11
2023-04-13T07:19:14.043Z,9.17
2023-04-13T07:24:23.355Z,9.20
2023-04-13T07:29:25.977Z,9.21
2023-04-13T07:34:32.391Z,9.31
2023-04-13T07:39:35.211Z,9.30
2023-04-13T07:44:37.148Z,9.32
2023-04-13T07:49:39.599Z,9.45
2023-04-13T07:54:46.597Z,9.62
2023-04-13T07:59:49.254Z,9.94
2023-04-13T08:04:52.986Z,10.13
2023-04-13T08:10:00.391Z,10.17
2023-04-13T08:15:03.302Z,10.20
2023-04-13T08:20:08.867Z,10.27
2023-04-13T08:25:10.646Z,10.07
2023-04-13T08:30:12.691Z,10.03
2023-04-13T08:35:24.687Z,10.10
2023-04-13T08:40:27.219Z,10.31
2023-04-13T08:45:31.661Z,10.44
2023-04-13T08:50:33.523Z,10.53
2023-04-13T08:55:43.596Z,10.56
2023-04-13T09:00:49.968Z,10.49
2023-04-13T09:06:09.501Z,10.73
2023-04-13T09:11:11.098Z,10.76
2023-04-13T09:16:12.856Z,10.82
2023-04-13T09:21:42.353Z,10.88
2023-04-13T09:26:46.458Z,10.95
2023-04-13T09:37:33.190Z,11.16
2023-04-13T09:42:36.069Z,11.08
2023-04-13T09:47:41.056Z,10.93
2023-04-13T09:52:42.729Z,10.94
2023-04-13T09:57:44.271Z,10.94
2023-04-13T10:02:48.068Z,10.98
2023-04-13T10:07:51.521Z,11.17
2023-04-13T10:12:56.348Z,11.36
2023-04-13T10:18:23.805Z,11.31
2023-04-13T10:23:27.243Z,11.58
2023-04-13T10:28:29.342Z,11.92
2023-04-13T10:33:31.563Z,11.94
2023-04-13T10:38:42.858Z,12.06
2023-04-13T10:44:25.166Z,12.24
2023-04-13T10:49:44.137Z,12.21
2023-04-13T10:54:45.657Z,12.26
2023-04-13T10:59:58.060Z,12.23
2023-04-13T11:05:01.125Z,12.44
2023-04-13T11:10:03.542Z,12.76
2023-04-13T11:15:06.404Z,12.62
2023-04-13T11:20:11.199Z,12.38
2023-04-13T11:25:13.106Z,12.44
2023-04-13T11:30:14.545Z,13.09
2023-04-13T11:35:16.580Z,13.30
2023-04-13T11:40:27.701Z,13.35
2023-04-13T11:45:30.226Z,13.52
2023-04-13T11:50:32.743Z,13.51
2023-04-13T11:55:52.172Z,13.11
2023-04-13T12:00:59.885Z,13.30
2023-04-13T12:06:04.495Z,13.44
2023-04-13T12:11:39.024Z,13.66
2023-04-13T12:16:55.898Z,13.30
2023-04-13T12:21:56.484Z,13.56
2023-04-13T12:27:17.856Z,13.68
2023-04-13T12:32:20.562Z,13.44
2023-04-13T12:37:22.019Z,13.54
2023-04-13T12:42:23.607Z,13.92
2023-04-13T12:47:25.944Z,14.36
2023-04-13T12:52:29.361Z,13.98
2023-04-13T12:57:30.978Z,14.30
2023-04-13T13:02:32.733Z,13.84
2023-04-13T13:07:34.225Z,13.85
2023-04-13T13:12:35.749Z,14.69
2023-04-13T13:17:40.865Z,14.50
2023-04-13T13:22:42.483Z,14.25
2023-04-13T13:57:08.826Z,14.43
2023-04-13T14:08:17.309Z,14.84
2023-04-13T14:13:31.430Z,14.65
2023-04-13T14:19:05.379Z,14.50
2023-04-13T14:24:32.683Z,15.18
2023-04-13T14:37:48.735Z,15.99
2023-04-13T14:43:39.877Z,14.72
2023-04-13T14:48:46.408Z,14.76
2023-04-13T14:54:25.607Z,14.84
2023-04-13T14:59:27.157Z,14.70
2023-04-13T15:04:29.717Z,15.28
2023-04-13T15:09:32.472Z,14.60
2023-04-13T15:14:33.953Z,14.76
2023-04-13T15:19:36.230Z,15.37
2023-04-13T15:24:37.718Z,14.21
2023-04-13T15:29:39.199Z,14.42
2023-04-13T15:34:40.758Z,13.78
2023-04-13T15:39:42.238Z,14.17
2023-04-13T15:44:43.701Z,14.06
2023-04-13T15:49:45.265Z,14.02
2023-04-13T15:54:46.960Z,13.92
2023-04-13T15:59:48.459Z,13.87
2023-04-13T16:04:50.926Z,13.50
2023-04-13T16:09:58.406Z,13.36
2023-04-13T16:15:03.829Z,13.59
2023-04-13T16:20:11.116Z,14.76
2023-04-13T16:25:15.207Z,13.78
2023-04-13T16:30:19.984Z,13.70
2023-04-13T16:35:21.466Z,13.71
2023-04-13T16:40:23.526Z,13.36
2023-04-13T16:45:25.007Z,13.17
2023-04-13T16:50:30.346Z,13.45
2023-04-13T16:55:33.265Z,13.26
2023-04-13T17:00:35.798Z,13.25
2023-04-13T17:05:37.379Z,13.82
2023-04-13T17:10:38.860Z,14.23
2023-04-13T17:15:40.511Z,13.99
2023-04-13T17:20:42.086Z,14.11
2023-04-13T17:25:43.614Z,14.88
2023-04-13T17:30:45.683Z,13.28
2023-04-13T17:35:52.837Z,13.06
2023-04-13T17:40:54.267Z,12.65
2023-04-13T17:45:55.721Z,12.93
2023-04-13T17:50:57.137Z,12.28
2023-04-13T17:55:58.614Z,12.16
2023-04-13T18:01:06.948Z,14.40
2023-04-13T18:06:08.541Z,14.82
2023-04-13T18:11:09.971Z,14.79
2023-04-13T18:16:14.100Z,14.58
2023-04-13T18:21:17.919Z,13.93
2023-04-13T18:26:19.672Z,14.27
2023-04-13T18:31:21.435Z,14.31
2023-04-13T18:36:24.560Z,14.11
2023-04-13T18:41:25.988Z,12.94
2023-04-13T18:46:27.841Z,13.67
2023-04-13T18:51:30.784Z,13.78
2023-04-13T19:03:29.125Z,13.71
2023-04-13T19:08:30.718Z,13.80
2023-04-13T19:13:32.150Z,13.71
2023-04-13T19:31:18.276Z,13.16
2023-04-13T19:36:19.752Z,12.88
2023-04-13T19:41:21.290Z,12.90
2023-04-13T19:46:22.757Z,12.38
2023-04-13T19:51:32.779Z,12.69
2023-04-13T19:56:34.556Z,12.56
2023-04-13T20:01:36.090Z,12.35
2023-04-13T20:06:37.636Z,11.59
2023-04-13T20:11:41.630Z,11.93
2023-04-13T20:16:43.118Z,12.16
2023-04-13T20:21:46.472Z,12.15
2023-04-13T20:26:47.967Z,12.10
2023-04-13T20:31:49.670Z,12.04
2023-04-13T20:36:51.347Z,12.00
2023-04-13T20:41:55.836Z,11.87
2023-04-13T20:46:57.504Z,11.79
2023-04-13T20:52:02.013Z,11.65
2023-04-13T20:57:03.710Z,11.19
2023-04-13T21:02:05.492Z,11.24
2023-04-13T21:12:33.358Z,11.29
2023-04-13T21:18:00.596Z,10.21
2023-04-13T21:23:02.052Z,10.72
2023-04-13T21:28:03.436Z,10.96
2023-04-13T21:33:04.912Z,10.94
2023-04-13T21:38:06.404Z,10.90
2023-04-13T21:43:07.830Z,10.80
2023-04-13T21:48:09.165Z,10.77
2023-04-13T21:53:10.688Z,10.74
2023-04-13T21:58:12.149Z,10.67
2023-04-13T22:03:13.756Z,10.55
2023-04-13T22:08:15.250Z,10.52
2023-04-13T22:13:16.595Z,9.55
2023-04-13T22:18:18.161Z,10.20
2023-04-13T22:23:19.579Z,10.28
2023-04-13T22:28:21.002Z,10.22
2023-04-13T22:33:22.381Z,10.18
2023-04-13T22:38:23.818Z,10.19
2023-04-13T22:43:25.918Z,10.11
2023-04-13T22:48:28.928Z,10.06
2023-04-13T22:53:31.017Z,10.00
2023-04-13T22:58:32.469Z,10.13
2023-04-13T23:03:33.964Z,9.97
2023-04-13T23:08:35.432Z,9.95
2023-04-13T23:13:36.932Z,9.94
2023-04-13T23:18:42.110Z,9.99
2023-04-13T23:23:50.119Z,9.89
2023-04-13T23:28:52.147Z,9.37
2023-04-13T23:33:54.976Z,9.07
2023-04-13T23:38:56.903Z,9.23
2023-04-13T23:43:58.616Z,9.55
2023-04-13T23:49:00.247Z,9.60
2023-04-13T23:59:28.695Z,9.60
